createdAt,value
2022-10-22T00:01:13.970Z,90.48
2022-10-22T00:03:42.100Z,90.09
2022-10-22T00:06:10.187Z,89.96
2022-10-22T00:08:38.288Z,89.92
2022-10-22T00:11:11.124Z,90.35
2022-10-22T00:13:41.017Z,90.66
2022-10-22T00:16:09.580Z,90.88
2022-10-22T00:18:37.852Z,91.83
2022-10-22T00:21:07.135Z,91.93
2022-10-22T00:23:35.287Z,92.25
2022-10-22T00:26:03.290Z,92.48
2022-10-22T00:28:31.287Z,93.17
2022-10-22T00:31:02.519Z,93.18
2022-10-22T00:33:31.053Z,92.90
2022-10-22T00:35:59.508Z,93.37
2022-10-22T00:38:27.615Z,93.58
2022-10-22T00:40:55.999Z,93.47
2022-10-22T00:43:24.179Z,93.57
2022-10-22T00:45:52.301Z,93.94
2022-10-22T00:48:24.640Z,93.95
2022-10-22T00:50:57.523Z,93.50
2022-10-22T00:53:30.339Z,93.74
2022-10-22T00:55:58.502Z,93.17
2022-10-22T00:58:30.773Z,93.66
2022-10-22T01:00:59.333Z,93.50
2022-10-22T01:03:29.769Z,93.46
2022-10-22T01:06:00.296Z,93.57
2022-10-22T01:08:39.948Z,93.61
2022-10-22T01:11:16.529Z,93.99
2022-10-22T01:13:55.145Z,94.07
2022-10-22T01:16:32.389Z,94.10
2022-10-22T01:19:15.052Z,93.97
2022-10-22T01:21:46.657Z,94.09
2022-10-22T01:24:36.758Z,94.07
2022-10-22T01:27:26.250Z,94.34
2022-10-22T01:29:59.209Z,94.03
2022-10-22T01:32:29.413Z,94.21
2022-10-22T01:35:02.747Z,94.23
2022-10-22T01:37:34.070Z,94.64
2022-10-22T01:40:03.677Z,94.29
2022-10-22T01:42:31.717Z,94.22
2022-10-22T01:45:01.114Z,93.93
2022-10-22T01:47:40.294Z,93.54
2022-10-22T01:50:29.207Z,93.89
2022-10-22T01:53:08.705Z,93.25
2022-10-22T01:55:44.767Z,93.52
2022-10-22T01:58:25.751Z,93.86
2022-10-22T02:01:01.222Z,93.60
2022-10-22T02:03:39.712Z,93.82
2022-10-22T02:06:13.940Z,93.61
2022-10-22T02:08:43.276Z,93.89
2022-10-22T02:11:13.282Z,94.03
2022-10-22T02:13:45.971Z,94.06
2022-10-22T02:16:19.078Z,93.67
2022-10-22T02:18:51.811Z,93.98
2022-10-22T02:21:19.867Z,94.23
2022-10-22T02:23:47.916Z,94.21
2022-10-22T02:26:23.960Z,93.92
2022-10-22T02:29:00.575Z,94.27
2022-10-22T02:31:33.531Z,94.45
2022-10-22T02:34:08.073Z,93.96
2022-10-22T02:36:37.265Z,94.41
2022-10-22T02:39:07.796Z,94.21
2022-10-22T02:41:36.345Z,94.18
2022-10-22T02:44:10.198Z,93.75
2022-10-22T02:46:40.499Z,93.84
2022-10-22T02:49:08.780Z,93.85
2022-10-22T02:51:36.879Z,94.30
2022-10-22T02:54:04.980Z,94.16
2022-10-22T02:56:33.676Z,94.66
2022-10-22T02:59:01.944Z,94.41
2022-10-22T03:01:29.985Z,94.17
2022-10-22T03:03:59.425Z,94.25
2022-10-22T03:06:27.583Z,93.75
2022-10-22T03:08:57.245Z,94.08
2022-10-22T03:11:25.513Z,93.85
2022-10-22T03:13:53.575Z,93.90
2022-10-22T03:16:21.686Z,93.74
2022-10-22T03:18:49.828Z,93.79
2022-10-22T03:21:25.813Z,94.08
2022-10-22T03:23:55.148Z,93.63
2022-10-22T03:26:23.580Z,93.56
2022-10-22T03:28:52.257Z,94.03
2022-10-22T03:31:20.423Z,93.92
2022-10-22T03:33:48.495Z,93.83
2022-10-22T03:36:16.808Z,93.46
2022-10-22T03:38:46.407Z,93.32
2022-10-22T03:41:14.909Z,93.32
2022-10-22T03:43:43.181Z,93.42
2022-10-22T03:46:11.204Z,93.93
2022-10-22T03:48:39.241Z,93.88
2022-10-22T03:51:07.373Z,93.60
2022-10-22T03:53:35.442Z,93.91
2022-10-22T03:56:09.968Z,93.70
2022-10-22T03:58:39.044Z,93.59
2022-10-22T04:01:08.028Z,93.28
2022-10-22T04:03:36.300Z,93.22
2022-10-22T04:06:05.023Z,92.85
2022-10-22T04:08:33.331Z,92.97
2022-10-22T04:11:01.465Z,92.72
2022-10-22T04:13:30.891Z,93.22
2022-10-22T04:16:08.159Z,92.61
2022-10-22T04:18:37.019Z,92.37
2022-10-22T04:21:05.697Z,92.81
2022-10-22T04:23:33.892Z,91.90
2022-10-22T04:26:03.116Z,92.71
2022-10-22T04:28:32.643Z,92.79
2022-10-22T04:31:00.840Z,92.63
2022-10-22T04:33:28.862Z,92.57
2022-10-22T04:35:56.920Z,92.33
2022-10-22T04:38:25.291Z,92.23
2022-10-22T04:40:53.315Z,92.42
2022-10-22T04:43:21.436Z,92.30
2022-10-22T04:48:26.804Z,91.80
2022-10-22T04:50:55.444Z,91.60
2022-10-22T04:53:24.819Z,92.13
2022-10-22T04:55:53.214Z,92.42
2022-10-22T04:58:21.353Z,92.30
2022-10-22T05:00:51.049Z,92.08
2022-10-22T05:03:19.096Z,91.86
2022-10-22T05:05:47.712Z,92.28
2022-10-22T05:08:15.785Z,92.00
2022-10-22T05:10:43.812Z,92.09
2022-10-22T05:13:11.914Z,91.94
2022-10-22T05:15:40.063Z,91.64
2022-10-22T05:18:09.573Z,91.45
2022-10-22T05:20:40.690Z,91.34
2022-10-22T05:23:09.903Z,91.05
2022-10-22T05:25:39.224Z,90.66
2022-10-22T05:28:07.391Z,91.11
2022-10-22T05:30:35.442Z,90.47
2022-10-22T05:33:03.530Z,90.57
2022-10-22T05:35:33.855Z,91.15
2022-10-22T05:38:02.102Z,90.93
2022-10-22T05:40:31.407Z,91.28
2022-10-22T05:43:00.383Z,91.36
2022-10-22T05:45:28.432Z,91.08
2022-10-22T05:47:56.550Z,90.84
2022-10-22T05:50:24.761Z,90.94
2022-10-22T05:52:54.171Z,90.52
2022-10-22T05:55:22.274Z,91.19
2022-10-22T05:57:51.119Z,90.92
2022-10-22T06:00:19.423Z,91.08
2022-10-22T06:02:51.385Z,91.16
2022-10-22T06:05:19.550Z,90.87
2022-10-22T06:07:48.305Z,91.30
2022-10-22T06:10:21.038Z,91.25
2022-10-22T06:12:50.167Z,90.38
2022-10-22T06:15:20.242Z,90.57
2022-10-22T06:17:48.791Z,90.37
2022-10-22T06:20:18.723Z,90.34
2022-10-22T06:22:49.533Z,91.03
2022-10-22T06:25:19.305Z,90.47
2022-10-22T06:27:51.660Z,90.41
2022-10-22T06:30:19.743Z,90.21
2022-10-22T06:32:47.854Z,89.86
2022-10-22T06:35:16.232Z,89.74
2022-10-22T06:37:44.311Z,89.73
2022-10-22T06:40:14.237Z,90.02
2022-10-22T06:42:44.014Z,89.64
2022-10-22T06:45:12.370Z,89.48
2022-10-22T06:47:40.642Z,89.55
2022-10-22T06:50:09.361Z,89.75
2022-10-22T06:52:37.452Z,89.53
2022-10-22T06:55:06.111Z,89.50
2022-10-22T06:57:34.810Z,89.39
2022-10-22T07:00:06.922Z,89.37
2022-10-22T07:02:36.201Z,88.89
2022-10-22T07:05:04.535Z,88.97
2022-10-22T07:07:32.671Z,88.70
2022-10-22T07:10:00.873Z,88.04
2022-10-22T07:12:28.965Z,88.21
2022-10-22T07:14:56.975Z,87.69
2022-10-22T07:17:26.899Z,87.64
2022-10-22T07:19:55.934Z,87.66
2022-10-22T07:22:24.013Z,87.28
2022-10-22T07:24:52.095Z,87.40
2022-10-22T07:27:20.620Z,87.73
2022-10-22T07:29:48.789Z,86.95
2022-10-22T07:32:18.814Z,87.29
2022-10-22T07:34:51.091Z,86.55
2022-10-22T07:37:21.900Z,86.56
2022-10-22T07:39:50.950Z,86.36
2022-10-22T07:42:19.121Z,86.25
2022-10-22T07:44:48.911Z,86.12
2022-10-22T07:47:17.009Z,85.49
2022-10-22T07:49:45.148Z,85.82
2022-10-22T07:52:14.622Z,85.68
2022-10-22T07:54:42.741Z,85.79
2022-10-22T07:57:11.964Z,85.86
2022-10-22T07:59:41.176Z,85.33
2022-10-22T08:02:10.725Z,85.86
2022-10-22T08:04:39.176Z,85.66
2022-10-22T08:07:08.975Z,85.14
2022-10-22T08:09:38.627Z,84.97
2022-10-22T08:12:07.640Z,84.99
2022-10-22T08:14:35.750Z,85.10
2022-10-22T08:17:03.797Z,84.44
2022-10-22T08:19:33.044Z,84.45
2022-10-22T08:22:01.243Z,84.43
2022-10-22T08:24:29.592Z,84.24
2022-10-22T08:27:00.298Z,83.13
2022-10-22T08:29:28.411Z,82.82
2022-10-22T08:31:56.558Z,82.74
2022-10-22T08:34:24.863Z,82.62
2022-10-22T08:36:52.942Z,82.89
2022-10-22T08:39:21.057Z,82.22
2022-10-22T08:41:59.978Z,83.22
2022-10-22T08:44:53.351Z,81.67
2022-10-22T08:47:44.308Z,81.69
2022-10-22T08:50:16.125Z,82.34
2022-10-22T08:52:48.297Z,81.45
2022-10-22T08:55:17.192Z,81.70
2022-10-22T08:57:53.041Z,81.77
2022-10-22T09:00:30.609Z,80.81
2022-10-22T09:03:09.631Z,80.95
2022-10-22T09:05:49.529Z,80.90
2022-10-22T09:08:20.922Z,80.23
2022-10-22T09:10:52.146Z,80.93
2022-10-22T09:13:23.989Z,80.01
2022-10-22T09:15:57.206Z,78.87
2022-10-22T09:18:36.411Z,79.53
2022-10-22T09:21:13.602Z,79.13
2022-10-22T09:23:57.397Z,79.61
2022-10-22T09:26:27.764Z,79.76
2022-10-22T09:28:55.907Z,78.57
2022-10-22T09:31:31.566Z,77.79
2022-10-22T09:34:05.811Z,78.56
2022-10-22T09:36:34.368Z,78.33
2022-10-22T09:39:02.915Z,76.79
2022-10-22T09:41:31.487Z,75.69
2022-10-22T09:44:00.114Z,76.16
2022-10-22T09:46:31.143Z,76.06
2022-10-22T09:49:06.003Z,74.99
2022-10-22T09:51:38.799Z,74.32
2022-10-22T09:54:16.619Z,73.73
2022-10-22T09:56:51.919Z,74.15
2022-10-22T09:59:29.548Z,72.87
2022-10-22T10:02:13.432Z,73.75
2022-10-22T10:04:50.966Z,74.33
2022-10-22T10:07:21.408Z,73.69
2022-10-22T10:09:51.497Z,73.66
2022-10-22T10:12:33.890Z,73.89
2022-10-22T10:15:12.416Z,73.70
2022-10-22T10:17:49.516Z,73.72
2022-10-22T10:20:36.925Z,73.88
2022-10-22T10:23:15.443Z,73.57
2022-10-22T10:25:54.935Z,73.89
2022-10-22T10:28:39.346Z,73.34
2022-10-22T10:31:18.571Z,72.14
2022-10-22T10:33:56.951Z,73.39
2022-10-22T10:36:34.675Z,73.99
2022-10-22T10:39:09.066Z,71.95
2022-10-22T10:41:49.975Z,70.31
2022-10-22T10:44:47.499Z,71.18
2022-10-22T10:47:32.161Z,70.71
2022-10-22T10:50:16.608Z,72.05
2022-10-22T10:52:56.355Z,71.99
2022-10-22T10:55:31.474Z,71.37
2022-10-22T10:58:12.867Z,71.00
2022-10-22T11:00:51.826Z,71.78
2022-10-22T11:03:56.944Z,70.97
2022-10-22T11:06:29.661Z,71.34
2022-10-22T11:09:03.365Z,70.86
2022-10-22T11:11:37.555Z,71.07
2022-10-22T11:14:12.334Z,70.79
2022-10-22T11:16:43.846Z,71.21
2022-10-22T11:19:23.181Z,71.67
2022-10-22T11:22:16.417Z,72.10
2022-10-22T11:24:50.752Z,71.59
2022-10-22T11:27:26.538Z,70.63
2022-10-22T11:30:01.280Z,70.99
2022-10-22T11:32:29.398Z,71.35
2022-10-22T11:35:00.901Z,71.24
2022-10-22T11:37:35.064Z,70.59
2022-10-22T11:40:08.323Z,71.66
2022-10-22T11:42:39.569Z,68.37
2022-10-22T11:45:28.838Z,64.67
2022-10-22T11:48:05.914Z,61.34
2022-10-22T11:50:48.990Z,60.99
2022-10-22T11:53:27.486Z,59.57
2022-10-22T11:55:59.966Z,57.65
2022-10-22T11:58:34.365Z,57.58
2022-10-22T12:01:25.752Z,56.09
2022-10-22T12:04:15.155Z,51.85
2022-10-22T12:06:59.328Z,54.82
2022-10-22T12:09:32.443Z,53.19
2022-10-22T12:12:13.730Z,53.60
2022-10-22T12:14:53.620Z,54.04
2022-10-22T12:17:23.866Z,52.30
2022-10-22T12:20:02.232Z,51.11
2022-10-22T12:22:32.992Z,53.79
2022-10-22T12:25:04.003Z,54.79
2022-10-22T12:27:36.923Z,52.79
2022-10-22T12:30:19.330Z,50.00
2022-10-22T12:32:48.364Z,48.09
2022-10-22T12:35:19.988Z,48.11
2022-10-22T12:37:51.699Z,48.39
2022-10-22T12:40:23.808Z,46.91
2022-10-22T12:42:54.021Z,47.82
2022-10-22T12:45:23.139Z,46.94
2022-10-22T12:47:56.638Z,45.67
2022-10-22T12:50:30.491Z,46.00
2022-10-22T12:52:58.779Z,44.19
2022-10-22T12:55:28.230Z,44.17
2022-10-22T12:57:56.416Z,45.07
2022-10-22T13:00:26.812Z,43.83
2022-10-22T13:03:00.423Z,45.09
2022-10-22T13:05:38.841Z,44.84
2022-10-22T13:08:10.694Z,43.95
2022-10-22T13:10:41.643Z,43.56
2022-10-22T13:13:31.208Z,42.76
2022-10-22T13:16:15.222Z,43.83
2022-10-22T13:18:43.979Z,44.80
2022-10-22T13:21:23.878Z,43.52
2022-10-22T13:23:58.069Z,43.01
2022-10-22T13:26:33.313Z,44.46
2022-10-22T13:29:02.904Z,44.18
2022-10-22T13:31:33.592Z,43.42
2022-10-22T13:34:09.797Z,43.74
2022-10-22T13:36:41.374Z,43.54
2022-10-22T13:39:14.835Z,42.13
2022-10-22T13:41:44.283Z,42.33
2022-10-22T13:44:12.322Z,42.16
2022-10-22T13:46:42.970Z,43.31
2022-10-22T13:49:16.738Z,42.95
2022-10-22T13:51:46.634Z,41.19
2022-10-22T13:54:17.607Z,42.47
2022-10-22T13:56:46.999Z,43.83
2022-10-22T13:59:17.243Z,42.01
2022-10-22T14:01:47.903Z,41.59
2022-10-22T14:04:16.108Z,39.96
2022-10-22T14:06:44.295Z,41.98
2022-10-22T14:09:16.615Z,42.07
2022-10-22T14:11:46.080Z,41.51
2022-10-22T14:14:17.201Z,40.51
2022-10-22T14:16:45.547Z,39.76
2022-10-22T14:19:18.527Z,39.92
2022-10-22T14:21:47.382Z,40.09
2022-10-22T14:24:15.468Z,39.03
2022-10-22T14:26:43.540Z,38.84
2022-10-22T14:29:13.005Z,38.78
2022-10-22T14:31:43.489Z,39.32
2022-10-22T14:34:13.883Z,41.33
2022-10-22T14:36:44.080Z,40.89
2022-10-22T14:39:12.525Z,41.14
2022-10-22T14:41:41.753Z,38.54
2022-10-22T14:44:14.316Z,38.75
2022-10-22T14:46:44.625Z,40.93
2022-10-22T14:49:13.040Z,39.45
2022-10-22T14:51:41.233Z,38.75
2022-10-22T14:54:09.475Z,38.94
2022-10-22T14:59:10.915Z,38.02
2022-10-22T15:01:42.898Z,37.00
2022-10-22T15:04:11.996Z,37.84
2022-10-22T15:06:40.003Z,37.95
2022-10-22T15:09:08.496Z,38.06
2022-10-22T15:11:36.688Z,37.09
2022-10-22T15:14:04.870Z,38.07
2022-10-22T15:16:32.970Z,37.71
2022-10-22T15:19:02.361Z,38.55
2022-10-22T15:21:30.472Z,38.15
2022-10-22T15:23:58.918Z,39.09
2022-10-22T15:26:29.538Z,39.81
2022-10-22T15:29:02.689Z,39.77
2022-10-22T15:31:46.236Z,40.71
2022-10-22T15:34:19.798Z,40.63
2022-10-22T15:36:48.123Z,40.30
2022-10-22T15:39:16.383Z,41.62
2022-10-22T15:41:44.514Z,43.33
2022-10-22T15:44:16.561Z,41.77
2022-10-22T15:46:45.805Z,43.51
2022-10-22T15:49:15.831Z,45.26
2022-10-22T15:51:43.912Z,47.42
2022-10-22T15:54:16.235Z,49.14
2022-10-22T15:56:44.770Z,51.96
2022-10-22T15:59:14.435Z,54.27
2022-10-22T16:01:42.867Z,55.73
2022-10-22T16:04:11.455Z,57.12
2022-10-22T16:06:43.400Z,58.37
2022-10-22T16:09:14.050Z,60.75
2022-10-22T16:11:42.933Z,63.44
2022-10-22T16:14:13.333Z,65.69
2022-10-22T16:16:44.595Z,67.63
2022-10-22T16:19:14.403Z,68.83
2022-10-22T16:21:45.086Z,70.25
2022-10-22T16:24:13.254Z,71.81
2022-10-22T16:26:42.013Z,72.72
2022-10-22T16:29:12.512Z,73.82
2022-10-22T16:31:41.237Z,74.85
